Time;durP1;ratioP1;P1;durP2;ratioP2;P2;SDS_P1;SDS_P2;PMS_P1;PMS_P2;Temp;Humidity;BMP_temperature;BMP_pressure;BME280_temperature;BME280_humidity;BME280_pressure;Samples;Min_cycle;Max_cycle;Signal;HPM_P1;HPM_P2
2022/12/08 00:01:46;;;;;;;16.17;10.17;;;2.30;1.00;;;;;;4967339;28;20188;-81
2022/12/08 00:04:12;;;;;;;14.47;9.43;;;2.30;1.00;;;;;;4965602;28;20204;-81
2022/12/08 00:09:34;;;;;;;14.00;10.43;;;2.40;1.00;;;;;;4969083;28;20195;-80
2022/12/08 00:12:08;;;;;;;14.40;10.77;;;2.20;1.00;;;;;;4968212;28;20187;-82
2022/12/08 00:14:37;;;;;;;14.87;10.73;;;2.40;1.00;;;;;;4967247;28;20216;-80
2022/12/08 00:17:04;;;;;;;14.80;10.77;;;2.40;99.90;;;;;;4983815;28;20199;-80
2022/12/08 00:19:30;;;;;;;14.33;11.50;;;2.40;99.90;;;;;;4982655;28;20189;-79
2022/12/08 00:21:56;;;;;;;15.60;10.23;;;3.30;99.90;;;;;;4966651;28;20189;-81
2022/12/08 00:24:24;;;;;;;12.97;10.10;;;2.50;99.90;;;;;;4966902;28;20212;-80
2022/12/08 00:26:50;;;;;;;12.53;10.30;;;2.50;99.90;;;;;;4983179;28;20192;-78
2022/12/08 00:29:16;;;;;;;11.93;10.30;;;2.50;57.00;;;;;;4967009;28;20189;-81
2022/12/08 00:31:41;;;;;;;14.33;9.73;;;2.50;1.00;;;;;;4968150;28;20292;-82
2022/12/08 00:34:07;;;;;;;13.53;10.03;;;2.50;6.30;;;;;;4970853;28;20291;-80
2022/12/08 00:36:33;;;;;;;10.80;9.50;;;2.50;1.00;;;;;;4971675;28;20192;-82
2022/12/08 00:38:59;;;;;;;14.93;11.00;;;2.40;1.00;;;;;;4970724;28;20671;-80
2022/12/08 00:44:14;;;;;;;12.53;10.20;;;2.40;24.80;;;;;;4972035;28;20232;-82
2022/12/08 00:46:40;;;;;;;15.20;10.73;;;2.40;99.90;;;;;;4970648;28;20181;-81
2022/12/08 00:49:07;;;;;;;13.60;11.03;;;2.40;99.90;;;;;;4971872;28;20181;-80
2022/12/08 00:51:33;;;;;;;13.97;11.10;;;2.40;99.90;;;;;;4972287;28;20232;-81
2022/12/08 00:53:58;;;;;;;14.20;11.50;;;2.40;99.90;;;;;;4971725;28;20687;-82
2022/12/08 00:56:25;;;;;;;15.47;11.33;;;2.40;99.90;;;;;;4971428;28;20260;-79
2022/12/08 00:58:51;;;;;;;15.33;11.17;;;2.40;99.90;;;;;;4970295;28;20228;-79
2022/12/08 01:01:16;;;;;;;15.70;12.20;;;2.30;99.90;;;;;;4970894;28;20173;-78
2022/12/08 01:03:43;;;;;;;14.30;12.13;;;2.40;99.90;;;;;;4970390;28;20248;-80
2022/12/08 01:06:09;;;;;;;28.07;17.43;;;2.40;99.90;;;;;;4971029;28;21103;-82
2022/12/08 01:08:38;;;;;;;104.87;40.93;;;2.40;99.90;;;;;;4971035;28;20240;-81
2022/12/08 01:11:10;;;;;;;104.63;40.97;;;2.50;99.90;;;;;;4969830;28;20181;-79
2022/12/08 01:13:37;;;;;;;62.97;31.83;;;2.50;99.90;;;;;;4970619;28;20184;-83
2022/12/08 01:16:03;;;;;;;80.17;37.40;;;2.40;99.90;;;;;;4969353;28;20189;-80
2022/12/08 01:18:29;;;;;;;62.97;29.33;;;2.40;99.90;;;;;;4970568;28;20251;-82
2022/12/08 01:20:54;;;;;;;71.37;34.57;;;2.40;99.90;;;;;;4969804;28;20188;-80
2022/12/08 01:23:20;;;;;;;29.43;18.53;;;2.40;99.90;;;;;;4969807;28;20184;-81
2022/12/08 01:25:46;;;;;;;25.63;16.80;;;2.40;99.90;;;;;;4969043;28;20204;-81
2022/12/08 01:28:11;;;;;;;22.70;17.40;;;2.50;99.90;;;;;;4968647;28;20188;-81
2022/12/08 01:30:38;;;;;;;24.17;17.20;;;4.30;99.90;;;;;;4970108;28;20272;-81
2022/12/08 01:33:04;;;;;;;24.83;18.03;;;2.50;95.50;;;;;;4967631;28;20737;-81
2022/12/08 01:35:29;;;;;;;22.50;16.33;;;2.20;4.70;;;;;;4968463;28;20331;-81
2022/12/08 01:37:55;;;;;;;23.60;17.97;;;2.50;1.00;;;;;;4968254;28;20189;-80
2022/12/08 01:40:20;;;;;;;25.53;18.43;;;2.50;1.00;;;;;;4968777;28;20376;-81
2022/12/08 01:42:46;;;;;;;25.20;16.77;;;2.30;1.00;;;;;;4968547;28;20207;-80
2022/12/08 01:45:24;;;;;;;21.20;15.30;;;2.50;1.00;;;;;;4969822;28;20201;-79
2022/12/08 01:47:53;;;;;;;20.33;15.87;;;2.50;1.00;;;;;;4970528;28;20188;-80
2022/12/08 01:50:20;;;;;;;26.10;17.90;;;2.50;1.00;;;;;;4969801;28;20659;-80
2022/12/08 01:52:53;;;;;;;22.30;16.90;;;2.40;1.00;;;;;;4969350;28;20195;-80
2022/12/08 01:55:31;;;;;;;19.97;15.20;;;2.40;1.00;;;;;;4968384;28;20205;-82
2022/12/08 01:58:10;;;;;;;20.20;15.30;;;2.30;27.90;;;;;;4969923;28;20673;-82
2022/12/08 02:00:36;;;;;;;22.87;17.63;;;2.30;98.50;;;;;;4968503;28;20188;-80
2022/12/08 02:03:05;;;;;;;27.50;19.60;;;2.30;71.50;;;;;;4967417;28;20188;-81
2022/12/08 02:05:33;;;;;;;25.90;17.83;;;2.30;39.60;;;;;;4984780;28;20205;-81
2022/12/08 02:08:03;;;;;;;23.43;16.53;;;2.30;92.10;;;;;;4969546;28;20181;-79
2022/12/08 02:10:33;;;;;;;23.90;16.30;;;2.30;18.60;;;;;;4970402;28;20185;-80
2022/12/08 02:12:59;;;;;;;23.17;15.60;;;2.20;93.10;;;;;;4967419;28;20192;-81
2022/12/08 02:15:44;;;;;;;20.13;15.37;;;2.30;72.10;;;;;;4968413;28;20303;-80
2022/12/08 02:18:36;;;;;;;20.20;14.43;;;3.30;10.60;;;;;;4969635;28;20181;-79
2022/12/08 02:21:11;;;;;;;18.87;13.37;;;2.30;1.00;;;;;;4969683;28;20208;-79
2022/12/08 02:23:50;;;;;;;19.07;13.83;;;2.30;1.00;;;;;;4969422;28;20181;-79
2022/12/08 02:26:53;;;;;;;15.97;13.33;;;2.20;1.00;;;;;;4968501;28;20663;-80
2022/12/08 02:29:31;;;;;;;18.50;13.37;;;2.20;1.00;;;;;;4969719;28;20263;-79
2022/12/08 02:32:06;;;;;;;18.27;13.30;;;2.20;4.60;;;;;;4969140;28;20185;-79
2022/12/08 02:34:44;;;;;;;17.13;12.40;;;2.30;66.20;;;;;;4969847;28;20686;-79
2022/12/08 02:37:24;;;;;;;19.23;12.40;;;2.30;1.00;;;;;;4968437;28;20192;-79
2022/12/08 02:40:05;;;;;;;15.53;12.33;;;2.30;1.00;;;;;;4968398;28;20203;-78
2022/12/08 02:42:42;;;;;;;18.57;13.10;;;2.30;1.00;;;;;;4967714;28;20176;-81
2022/12/08 02:45:16;;;;;;;15.30;12.43;;;2.20;1.00;;;;;;4969665;28;20204;-79
2022/12/08 02:47:42;;;;;;;16.00;12.07;;;2.20;1.00;;;;;;4969280;28;20275;-80
2022/12/08 02:50:09;;;;;;;18.40;12.43;;;2.10;1.00;;;;;;4969459;28;20268;-81
2022/12/08 02:52:40;;;;;;;17.70;12.60;;;2.20;1.00;;;;;;4983165;28;20189;-79
2022/12/08 02:55:19;;;;;;;17.00;12.70;;;2.10;6.40;;;;;;4968460;28;20255;-78
2022/12/08 02:58:04;;;;;;;17.67;11.43;;;2.10;79.20;;;;;;4968785;28;20177;-77
2022/12/08 03:00:52;;;;;;;17.63;11.77;;;2.10;99.90;;;;;;4969501;28;20185;-86
2022/12/08 03:03:51;;;;;;;18.17;12.73;;;2.20;39.60;;;;;;4968015;28;20659;-80
2022/12/08 03:06:29;;;;;;;18.30;12.17;;;2.10;1.00;;;;;;4967509;28;20555;-82
2022/12/08 03:09:23;;;;;;;16.27;11.43;;;2.10;1.00;;;;;;4968780;28;20312;-81
2022/12/08 03:11:56;;;;;;;16.10;11.23;;;2.00;1.00;;;;;;4967910;28;20181;-82
2022/12/08 03:14:21;;;;;;;20.47;13.33;;;2.10;26.20;;;;;;4968386;28;20251;-82
2022/12/08 03:16:51;;;;;;;18.50;12.13;;;2.10;8.20;;;;;;4968708;28;20220;-82
2022/12/08 03:19:25;;;;;;;16.23;12.10;;;2.10;1.00;;;;;;4983499;28;20609;-83
2022/12/08 03:21:59;;;;;;;18.53;11.73;;;2.00;1.00;;;;;;4968568;28;20829;-82
2022/12/08 03:24:24;;;;;;;16.90;12.10;;;2.00;1.00;;;;;;4967655;28;20220;-82
2022/12/08 03:26:59;;;;;;;16.37;12.30;;;2.00;1.00;;;;;;4968000;28;20192;-82
2022/12/08 03:29:25;;;;;;;13.50;10.70;;;1.90;1.00;;;;;;4967495;28;20198;-81
2022/12/08 03:31:57;;;;;;;17.20;12.13;;;3.60;1.00;;;;;;4966921;28;20203;-80
2022/12/08 03:34:26;;;;;;;15.30;11.70;;;1.80;1.00;;;;;;4968306;28;20240;-82
2022/12/08 03:36:52;;;;;;;14.97;11.60;;;1.80;1.00;;;;;;4983304;28;20604;-82
2022/12/08 03:39:17;;;;;;;16.03;11.63;;;1.80;1.00;;;;;;4968135;28;20224;-85
2022/12/08 03:41:44;;;;;;;16.97;11.60;;;1.70;34.60;;;;;;4968578;28;20199;-81
2022/12/08 03:44:10;;;;;;;16.50;11.70;;;1.80;49.20;;;;;;4966353;28;20300;-80
2022/12/08 03:46:35;;;;;;;19.27;12.37;;;1.80;27.20;;;;;;4968617;28;20978;-80
2022/12/08 03:49:01;;;;;;;17.73;12.80;;;1.80;56.20;;;;;;4966958;28;20192;-79
2022/12/08 03:51:26;;;;;;;19.20;12.73;;;1.90;32.40;;;;;;4967126;28;20188;-80
2022/12/08 03:53:52;;;;;;;18.33;12.10;;;1.90;1.00;;;;;;4967984;28;20898;-80
2022/12/08 03:56:21;;;;;;;16.67;12.60;;;2.00;1.00;;;;;;4966770;28;20305;-76
2022/12/08 03:58:47;;;;;;;17.37;12.20;;;2.00;1.00;;;;;;4967920;28;20227;-78
2022/12/08 04:01:12;;;;;;;15.87;11.87;;;2.20;1.00;;;;;;4966998;28;20185;-78
2022/12/08 04:03:38;;;;;;;19.70;12.20;;;2.10;1.00;;;;;;4966636;28;20586;-76
2022/12/08 04:06:04;;;;;;;16.47;11.87;;;2.10;1.00;;;;;;4967106;28;20188;-81
2022/12/08 04:08:29;;;;;;;17.53;11.40;;;2.10;1.00;;;;;;4966081;28;20193;-80
2022/12/08 04:10:55;;;;;;;16.37;11.43;;;2.10;1.00;;;;;;4967655;28;20192;-79
2022/12/08 04:13:21;;;;;;;16.17;11.50;;;2.10;1.00;;;;;;4967101;28;20192;-79
2022/12/08 04:15:47;;;;;;;15.70;11.93;;;2.00;1.00;;;;;;4965886;28;20328;-81
2022/12/08 04:18:13;;;;;;;14.77;11.07;;;2.00;1.00;;;;;;4966367;28;20184;-79
2022/12/08 04:20:40;;;;;;;14.43;10.83;;;2.00;1.00;;;;;;4965851;28;20235;-79
2022/12/08 04:23:07;;;;;;;18.33;12.10;;;2.00;1.00;;;;;;4966019;28;20180;-79
2022/12/08 04:25:33;;;;;;;16.00;11.37;;;1.80;1.00;;;;;;4966621;28;20240;-79
2022/12/08 04:27:58;;;;;;;19.10;11.87;;;1.80;1.00;;;;;;4966237;28;20678;-80
2022/12/08 04:30:24;;;;;;;17.77;12.40;;;1.80;1.00;;;;;;4965944;28;20272;-80
2022/12/08 04:32:49;;;;;;;17.33;11.57;;;1.60;1.00;;;;;;4965358;28;20275;-79
2022/12/08 04:35:15;;;;;;;19.23;11.47;;;1.60;1.00;;;;;;4965438;28;20243;-79
2022/12/08 04:37:42;;;;;;;17.03;11.23;;;1.60;1.00;;;;;;4967176;28;20197;-79
2022/12/08 04:40:09;;;;;;;16.20;11.23;;;1.60;1.00;;;;;;4965503;28;20214;-79
2022/12/08 04:42:35;;;;;;;17.40;11.57;;;1.50;1.00;;;;;;4981588;28;20185;-77
2022/12/08 04:45:01;;;;;;;16.17;10.93;;;1.50;1.00;;;;;;4967550;28;20219;-78
2022/12/08 04:47:26;;;;;;;19.67;12.03;;;1.50;1.00;;;;;;4966708;28;20193;-78
2022/12/08 04:49:52;;;;;;;15.93;10.83;;;1.50;1.00;;;;;;4964918;28;20288;-81
2022/12/08 04:52:17;;;;;;;15.40;11.47;;;1.40;1.00;;;;;;4966836;28;20260;-79
2022/12/08 04:54:43;;;;;;;16.23;11.23;;;1.40;91.40;;;;;;4963441;28;20219;-79
2022/12/08 04:57:08;;;;;;;16.20;10.93;;;1.40;99.90;;;;;;4966200;28;20185;-80
2022/12/08 04:59:34;;;;;;;16.10;11.70;;;3.10;99.90;;;;;;4965829;28;20185;-79
2022/12/08 05:02:00;;;;;;;16.53;11.03;;;1.30;99.90;;;;;;4967348;28;20188;-80
2022/12/08 05:04:25;;;;;;;17.00;11.27;;;1.40;1.00;;;;;;4966746;28;20217;-80
2022/12/08 05:06:51;;;;;;;18.10;11.03;;;1.30;1.00;;;;;;4967344;28;20222;-81
2022/12/08 05:09:17;;;;;;;16.67;10.60;;;1.40;1.00;;;;;;4966333;28;20189;-79
2022/12/08 05:11:42;;;;;;;18.17;11.03;;;1.50;1.00;;;;;;4965877;28;20284;-78
2022/12/08 05:14:10;;;;;;;17.70;10.97;;;1.40;99.90;;;;;;4965614;28;20208;-79
2022/12/08 05:16:37;;;;;;;18.90;10.67;;;1.50;99.90;;;;;;4967248;28;20200;-81
2022/12/08 05:19:03;;;;;;;19.00;10.63;;;1.50;99.90;;;;;;4970594;28;20294;-79
2022/12/08 05:21:28;;;;;;;17.67;9.77;;;1.50;99.90;;;;;;4970926;28;20188;-77
2022/12/08 05:23:54;;;;;;;16.53;10.33;;;1.50;98.10;;;;;;4969431;28;20231;-81
2022/12/08 05:26:20;;;;;;;18.10;10.77;;;1.50;99.90;;;;;;4969304;28;21206;-81
2022/12/08 05:28:45;;;;;;;16.30;9.33;;;1.50;1.00;;;;;;4970547;28;20268;-81
2022/12/08 05:31:12;;;;;;;12.90;8.97;;;1.50;1.00;;;;;;4970468;28;20259;-79
2022/12/08 05:33:38;;;;;;;16.83;9.37;;;1.50;1.00;;;;;;4970260;28;20189;-79
2022/12/08 05:36:04;;;;;;;16.90;9.90;;;1.60;7.10;;;;;;4970877;28;20184;-82
2022/12/08 05:38:29;;;;;;;16.87;10.23;;;1.60;1.00;;;;;;4970035;28;20642;-79
2022/12/08 05:40:55;;;;;;;15.13;9.87;;;1.60;1.00;;;;;;4971018;28;20181;-80
2022/12/08 05:43:21;;;;;;;18.80;11.03;;;1.70;1.00;;;;;;4969552;28;20252;-82
2022/12/08 05:45:46;;;;;;;21.80;11.63;;;1.80;1.00;;;;;;4970689;28;20232;-79
2022/12/08 05:48:12;;;;;;;20.70;11.73;;;1.80;1.00;;;;;;4968495;28;20185;-79
2022/12/08 05:50:38;;;;;;;19.13;11.63;;;1.90;1.00;;;;;;4970513;28;20737;-78
2022/12/08 05:53:04;;;;;;;18.47;12.87;;;1.90;1.00;;;;;;4969386;28;20215;-82
2022/12/08 05:55:30;;;;;;;21.07;12.53;;;1.90;1.00;;;;;;4968414;28;20711;-78
2022/12/08 05:57:55;;;;;;;18.13;11.83;;;1.80;1.00;;;;;;4969148;28;20189;-80
2022/12/08 06:00:21;;;;;;;17.23;12.07;;;1.80;1.00;;;;;;4969711;28;20467;-79
2022/12/08 06:02:46;;;;;;;17.77;12.03;;;1.90;1.00;;;;;;4968105;28;20184;-81
2022/12/08 06:05:12;;;;;;;17.50;12.10;;;2.00;1.00;;;;;;4969355;28;21059;-79
2022/12/08 06:07:38;;;;;;;18.57;12.67;;;2.00;1.00;;;;;;4969878;28;20193;-82
2022/12/08 06:10:04;;;;;;;17.93;11.50;;;2.00;1.00;;;;;;4969581;28;20677;-79
2022/12/08 06:12:30;;;;;;;21.00;13.33;;;2.10;1.00;;;;;;4969447;28;20197;-80
2022/12/08 06:14:55;;;;;;;18.97;13.27;;;2.10;99.90;;;;;;4967929;28;20216;-79
2022/12/08 06:17:21;;;;;;;18.67;12.87;;;2.10;99.90;;;;;;4968564;28;20193;-79
2022/12/08 06:19:46;;;;;;;18.37;12.47;;;2.10;99.90;;;;;;4969076;28;20193;-79
2022/12/08 06:22:12;;;;;;;19.43;12.97;;;2.20;99.90;;;;;;4967619;28;20239;-79
2022/12/08 06:24:37;;;;;;;15.93;11.83;;;2.10;99.90;;;;;;4969123;28;20209;-79
2022/12/08 06:27:03;;;;;;;19.43;12.33;;;2.20;99.90;;;;;;4968321;28;20219;-79
2022/12/08 06:29:29;;;;;;;19.83;12.13;;;2.60;99.90;;;;;;4968925;28;20201;-79
2022/12/08 06:31:54;;;;;;;15.93;11.30;;;2.10;42.40;;;;;;5016589;22;20515;-81
2022/12/08 06:34:20;;;;;;;18.97;12.07;;;2.00;99.90;;;;;;4976303;28;20221;-82
2022/12/08 06:36:45;;;;;;;18.00;11.27;;;2.10;99.90;;;;;;4975493;28;20634;-81
2022/12/08 06:39:11;;;;;;;14.63;11.27;;;2.20;99.90;;;;;;4977525;28;20180;-82
2022/12/08 06:42:42;;;;;;;23.63;14.57;;;2.20;99.90;;;;;;4975465;28;20288;-80
2022/12/08 06:44:22;;;;;;;23.73;15.10;;;2.00;99.90;;;;;;4958380;28;20232;-80
2022/12/08 06:46:48;;;;;;;49.13;23.03;;;2.30;99.90;;;;;;4957687;28;20598;-82
2022/12/08 06:49:13;;;;;;;46.20;22.97;;;3.80;99.90;;;;;;4973555;28;20185;-82
2022/12/08 06:51:39;;;;;;;46.07;22.97;;;1.90;99.90;;;;;;4959161;28;20217;-82
2022/12/08 06:54:04;;;;;;;23.67;14.63;;;4.40;99.90;;;;;;4956156;28;20296;-83
2022/12/08 06:56:30;;;;;;;40.17;21.10;;;2.20;99.90;;;;;;4956887;28;20260;-81
2022/12/08 06:58:55;;;;;;;21.10;13.93;;;1.80;99.90;;;;;;4958483;28;20186;-82
2022/12/08 07:01:21;;;;;;;23.80;14.50;;;1.90;99.90;;;;;;4958130;28;20220;-81
2022/12/08 07:03:47;;;;;;;20.70;13.77;;;4.30;99.90;;;;;;4973452;28;20218;-83
2022/12/08 07:06:19;;;;;;;22.43;14.17;;;2.10;99.90;;;;;;4957036;28;20272;-83
2022/12/08 07:08:45;;;;;;;21.23;13.30;;;2.00;99.90;;;;;;4959948;28;20173;-81
2022/12/08 07:11:11;;;;;;;21.97;13.27;;;2.90;99.90;;;;;;4956364;28;20272;-82
2022/12/08 07:13:37;;;;;;;16.53;12.50;;;2.40;99.90;;;;;;4959382;28;20205;-82
2022/12/08 07:16:07;;;;;;;19.60;12.77;;;2.40;99.90;;;;;;4958907;28;20271;-81
2022/12/08 07:18:33;;;;;;;20.30;12.23;;;2.50;99.90;;;;;;4960723;28;20596;-83
2022/12/08 07:21:10;;;;;;;15.47;10.93;;;4.10;99.90;;;;;;4959695;28;20667;-81
2022/12/08 07:23:37;;;;;;;15.23;11.57;;;2.50;99.90;;;;;;4959708;28;20210;-82
2022/12/08 07:26:05;;;;;;;14.10;10.67;;;4.00;99.90;;;;;;4979633;28;20189;-84
2022/12/08 07:28:32;;;;;;;15.33;10.77;;;2.60;99.90;;;;;;4977782;28;20192;-84
2022/12/08 07:30:58;;;;;;;16.63;11.67;;;2.40;99.90;;;;;;4960636;28;20635;-82
2022/12/08 07:33:24;;;;;;;14.60;10.93;;;2.60;99.90;;;;;;4961785;28;20259;-81
2022/12/08 07:36:04;;;;;;;15.10;11.30;;;2.50;99.90;;;;;;4959316;28;20213;-84
2022/12/08 07:38:30;;;;;;;14.73;11.33;;;4.70;99.90;;;;;;4960835;28;20189;-82
2022/12/08 07:40:56;;;;;;;14.97;10.50;;;2.60;99.90;;;;;;4959254;28;20189;-82
2022/12/08 07:43:22;;;;;;;16.27;11.97;;;5.50;99.90;;;;;;4958802;28;20284;-83
2022/12/08 07:45:48;;;;;;;19.00;11.10;;;2.60;99.90;;;;;;4959083;28;20654;-81
2022/12/08 07:48:14;;;;;;;16.53;11.13;;;2.60;99.90;;;;;;4959553;28;20261;-82
2022/12/08 07:50:40;;;;;;;15.90;12.00;;;2.70;99.90;;;;;;4968320;28;20225;-80
2022/12/08 07:53:06;;;;;;;13.80;10.57;;;3.60;99.90;;;;;;4957634;28;20220;-81
2022/12/08 07:55:32;;;;;;;14.20;10.47;;;2.70;99.90;;;;;;4957521;28;20725;-83
2022/12/08 07:57:57;;;;;;;11.90;10.00;;;2.80;99.90;;;;;;4959827;28;20566;-82
2022/12/08 08:00:23;;;;;;;11.80;10.17;;;2.80;99.90;;;;;;4956124;28;20815;-84
2022/12/08 08:02:49;;;;;;;13.80;10.17;;;2.80;99.90;;;;;;4958504;28;20280;-84
2022/12/08 08:05:14;;;;;;;12.87;9.97;;;5.30;99.90;;;;;;4960838;28;20192;-82
2022/12/08 08:07:42;;;;;;;13.50;10.07;;;2.80;99.90;;;;;;4961317;28;20190;-81
2022/12/08 08:10:09;;;;;;;12.27;9.97;;;3.90;99.90;;;;;;4959966;28;20202;-86
2022/12/08 08:12:35;;;;;;;11.67;9.87;;;3.00;99.90;;;;;;4959620;28;20208;-83
2022/12/08 08:15:03;;;;;;;12.27;9.50;;;5.90;99.90;;;;;;4962825;28;20214;-85
2022/12/08 08:17:29;;;;;;;13.00;9.87;;;;;;;;;;4962315;28;20193;-84
2022/12/08 08:19:55;;;;;;;9.83;8.73;;;2.90;99.90;;;;;;4964006;28;20185;-82
2022/12/08 08:22:21;;;;;;;13.33;9.67;;;;;;;;;;4965335;28;20207;-83
2022/12/08 08:24:47;;;;;;;14.10;9.23;;;;;;;;;;4962746;28;20206;-82
2022/12/08 08:27:13;;;;;;;10.67;8.73;;;;;;;;;;4973569;28;20268;-81
2022/12/08 08:29:39;;;;;;;10.97;8.33;;;2.90;99.90;;;;;;4963955;28;20196;-83
2022/12/08 08:32:05;;;;;;;9.97;8.33;;;;;;;;;;4957368;28;20209;-81
2022/12/08 08:34:31;;;;;;;10.10;8.40;;;2.90;99.90;;;;;;4956612;28;20345;-83
2022/12/08 08:36:56;;;;;;;10.43;9.23;;;2.50;99.90;;;;;;4956466;28;20273;-83
2022/12/08 08:39:22;;;;;;;10.40;8.57;;;2.90;99.90;;;;;;4955779;28;20264;-83
2022/12/08 08:41:47;;;;;;;12.07;9.03;;;3.00;1.00;;;;;;4953599;28;20196;-82
2022/12/08 08:44:13;;;;;;;10.70;8.40;;;2.70;99.90;;;;;;4955620;28;20193;-83
2022/12/08 08:46:39;;;;;;;11.43;9.03;;;2.70;99.90;;;;;;4955272;28;20860;-82
2022/12/08 08:49:06;;;;;;;11.10;8.23;;;;;;;;;;4971849;28;20271;-82
2022/12/08 08:51:32;;;;;;;12.53;8.60;;;3.10;99.90;;;;;;4964288;28;20686;-82
2022/12/08 08:53:58;;;;;;;12.97;9.03;;;3.10;99.90;;;;;;4967109;28;20718;-82
2022/12/08 08:56:24;;;;;;;13.17;10.13;;;3.10;99.90;;;;;;4961025;28;20260;-83
2022/12/08 08:58:51;;;;;;;12.37;9.27;;;3.00;99.90;;;;;;4958632;28;20328;-82
2022/12/08 09:01:19;;;;;;;12.10;8.90;;;3.00;99.90;;;;;;4965313;28;20214;-82
2022/12/08 09:03:46;;;;;;;10.93;9.10;;;2.90;99.90;;;;;;4958388;28;20208;-82
2022/12/08 09:06:13;;;;;;;12.07;9.47;;;3.20;99.90;;;;;;4954178;28;20204;-81
2022/12/08 09:08:40;;;;;;;11.20;8.90;;;5.40;99.90;;;;;;4957192;28;20300;-81
2022/12/08 09:11:05;;;;;;;15.13;10.50;;;3.30;99.90;;;;;;4956591;28;20197;-83
2022/12/08 09:13:31;;;;;;;32.37;17.33;;;3.30;99.90;;;;;;4958741;28;20244;-81
2022/12/08 09:15:59;;;;;;;13.40;10.47;;;3.10;99.90;;;;;;4964023;28;20233;-81
2022/12/08 09:18:24;;;;;;;11.00;9.20;;;3.00;99.90;;;;;;4969014;28;20252;-80
2022/12/08 09:20:50;;;;;;;12.47;9.53;;;3.10;99.90;;;;;;4962632;28;20188;-81
2022/12/08 09:23:16;;;;;;;15.10;10.50;;;3.30;99.90;;;;;;4958309;28;20209;-81
2022/12/08 09:25:44;;;;;;;10.97;8.57;;;3.10;99.90;;;;;;4954355;28;20227;-81
2022/12/08 09:28:10;;;;;;;11.30;8.77;;;5.50;99.90;;;;;;4953429;28;20327;-80
2022/12/08 09:30:36;;;;;;;12.40;9.23;;;5.40;99.90;;;;;;4952598;28;20194;-80
2022/12/08 09:33:02;;;;;;;10.83;8.70;;;3.90;99.90;;;;;;4953095;28;20806;-80
2022/12/08 09:35:27;;;;;;;10.07;8.23;;;5.70;99.90;;;;;;4956939;28;20564;-79
2022/12/08 09:37:53;;;;;;;12.00;8.50;;;3.10;99.90;;;;;;4956997;28;20192;-80
2022/12/08 09:40:22;;;;;;;9.23;7.70;;;3.10;99.90;;;;;;4957995;28;20185;-80
2022/12/08 09:42:54;;;;;;;10.43;8.53;;;3.10;99.90;;;;;;4956055;28;20205;-78
2022/12/08 09:45:22;;;;;;;11.43;8.63;;;4.40;99.90;;;;;;4958599;28;20558;-79
2022/12/08 09:48:11;;;;;;;12.00;9.47;;;3.40;99.90;;;;;;4958760;28;20189;-80
2022/12/08 09:50:44;;;;;;;9.97;8.60;;;3.40;99.90;;;;;;4959267;28;20192;-80
2022/12/08 09:53:22;;;;;;;11.50;8.30;;;3.20;99.90;;;;;;4955616;28;20200;-80
2022/12/08 09:56:17;;;;;;;9.80;7.87;;;3.20;99.90;;;;;;4956030;28;20201;-79
2022/12/08 09:58:55;;;;;;;9.50;7.40;;;3.40;99.90;;;;;;4974676;28;20190;-80
2022/12/08 10:01:25;;;;;;;9.03;8.00;;;3.40;99.90;;;;;;4974328;28;20625;-81
2022/12/08 10:03:51;;;;;;;9.37;7.80;;;3.10;99.90;;;;;;4956972;28;20284;-80
2022/12/08 10:06:43;;;;;;;10.23;7.57;;;3.40;99.90;;;;;;4957683;28;20273;-82
2022/12/08 10:09:14;;;;;;;10.47;8.03;;;5.00;99.90;;;;;;4957828;28;20725;-80
2022/12/08 10:11:47;;;;;;;10.30;8.07;;;3.40;99.90;;;;;;4952817;28;20181;-79
2022/12/08 10:14:36;;;;;;;9.80;7.97;;;3.40;99.90;;;;;;4959263;28;20211;-81
2022/12/08 10:17:22;;;;;;;9.17;7.30;;;3.30;99.90;;;;;;4957489;28;20184;-80
2022/12/08 10:19:54;;;;;;;7.80;6.87;;;3.40;99.90;;;;;;4955858;28;20236;-81
2022/12/08 10:22:25;;;;;;;8.73;7.40;;;4.40;99.90;;;;;;4972660;28;20217;-79
2022/12/08 10:24:58;;;;;;;9.17;7.57;;;3.20;99.90;;;;;;4973261;28;20228;-80
2022/12/08 10:27:24;;;;;;;7.73;6.47;;;4.50;99.90;;;;;;4957932;28;20220;-82
2022/12/08 10:29:50;;;;;;;8.03;6.40;;;3.40;99.90;;;;;;4957320;28;20593;-80
2022/12/08 10:32:21;;;;;;;7.43;6.50;;;3.40;99.90;;;;;;4957821;28;20240;-79
2022/12/08 10:35:08;;;;;;;13.63;9.57;;;3.30;99.90;;;;;;4972789;28;20209;-81
2022/12/08 10:37:34;;;;;;;23.30;12.00;;;3.60;99.90;;;;;;4957290;28;21331;-81
2022/12/08 10:40:15;;;;;;;10.60;7.70;;;3.20;99.90;;;;;;4958072;28;20191;-80
2022/12/08 10:42:50;;;;;;;9.40;6.93;;;3.50;99.90;;;;;;4959304;28;20205;-80
2022/12/08 10:45:25;;;;;;;7.80;6.83;;;3.20;99.90;;;;;;4973004;28;20262;-80
2022/12/08 10:47:59;;;;;;;7.60;5.80;;;3.40;99.90;;;;;;4973991;28;20185;-80
2022/12/08 10:50:34;;;;;;;7.63;6.27;;;3.40;99.90;;;;;;4957041;28;20734;-81
2022/12/08 10:53:07;;;;;;;7.10;6.17;;;3.40;99.90;;;;;;4962074;28;20267;-81
2022/12/08 10:55:59;;;;;;;6.93;6.00;;;3.40;99.90;;;;;;4962043;28;20248;-83
2022/12/08 10:58:26;;;;;;;7.17;6.00;;;3.40;99.90;;;;;;4959524;28;20197;-83
2022/12/08 11:01:00;;;;;;;6.90;6.03;;;3.40;99.90;;;;;;4962635;28;20184;-83
2022/12/08 11:03:32;;;;;;;7.83;6.17;;;3.30;99.90;;;;;;4965661;28;20768;-82
2022/12/08 11:06:00;;;;;;;5.67;5.07;;;3.30;99.90;;;;;;4974474;28;20189;-83
2022/12/08 11:08:27;;;;;;;6.00;5.40;;;3.20;99.90;;;;;;4958789;28;20222;-82
2022/12/08 11:10:53;;;;;;;6.90;5.70;;;3.20;99.90;;;;;;4958439;28;20217;-83
2022/12/08 11:13:23;;;;;;;7.63;5.67;;;5.30;99.90;;;;;;4963022;28;20205;-82
2022/12/08 11:15:50;;;;;;;6.33;5.43;;;3.10;99.90;;;;;;4965750;28;20211;-81
2022/12/08 11:18:25;;;;;;;6.53;5.90;;;3.10;99.90;;;;;;4967724;28;20256;-82
2022/12/08 11:21:05;;;;;;;6.27;5.67;;;3.20;99.90;;;;;;4965464;28;20881;-83
2022/12/08 11:23:34;;;;;;;7.57;6.30;;;2.70;99.90;;;;;;4962186;28;20260;-84
2022/12/08 11:26:11;;;;;;;7.47;6.67;;;4.30;99.90;;;;;;4958704;28;20193;-82
2022/12/08 11:28:37;;;;;;;6.70;5.83;;;3.20;1.00;;;;;;4965559;28;20185;-82
2022/12/08 11:31:13;;;;;;;6.07;5.47;;;4.00;1.00;;;;;;4958115;28;20224;-82
2022/12/08 11:33:41;;;;;;;6.80;5.63;;;3.60;1.00;;;;;;4975245;28;20611;-82
2022/12/08 11:36:11;;;;;;;5.83;5.10;;;4.30;99.90;;;;;;4959498;28;20213;-80
2022/12/08 11:38:43;;;;;;;7.40;5.80;;;3.30;99.90;;;;;;4959360;28;20786;-80
2022/12/08 11:41:13;;;;;;;7.17;5.83;;;3.40;99.90;;;;;;4965428;28;20523;-82
2022/12/08 11:43:45;;;;;;;6.47;5.13;;;4.80;99.90;;;;;;4965853;28;20220;-81
2022/12/08 11:46:23;;;;;;;5.63;4.93;;;3.20;99.90;;;;;;4971468;28;20174;-81
2022/12/08 11:48:52;;;;;;;5.43;4.93;;;3.20;99.90;;;;;;4987683;28;20199;-81
2022/12/08 11:51:35;;;;;;;5.70;5.10;;;3.20;99.90;;;;;;4969923;28;20192;-81
2022/12/08 11:54:24;;;;;;;5.77;5.07;;;3.20;99.90;;;;;;4961310;28;20205;-79
2022/12/08 11:56:56;;;;;;;5.37;4.40;;;5.60;99.90;;;;;;4953448;28;20675;-82
2022/12/08 11:59:38;;;;;;;5.03;4.53;;;3.10;99.90;;;;;;4959319;28;20282;-82
2022/12/08 12:02:06;;;;;;;4.80;4.30;;;3.30;99.90;;;;;;4955789;28;20215;-82
2022/12/08 12:04:45;;;;;;;4.67;4.20;;;3.40;99.90;;;;;;4960705;28;20196;-81
2022/12/08 12:07:40;;;;;;;4.80;4.30;;;3.30;99.90;;;;;;4959962;28;20181;-82
2022/12/08 12:10:39;;;;;;;5.30;4.70;;;3.20;99.90;;;;;;4958208;28;20275;-82
2022/12/08 12:13:20;;;;;;;10.17;7.10;;;3.30;99.90;;;;;;4961504;28;20690;-79
2022/12/08 12:16:21;;;;;;;10.73;6.93;;;3.40;99.90;;;;;;4963151;28;20217;-82
2022/12/08 12:18:57;;;;;;;6.33;5.70;;;3.40;99.90;;;;;;4961489;28;20195;-81
2022/12/08 12:21:31;;;;;;;5.10;4.60;;;3.40;99.90;;;;;;4958709;28;20184;-82
2022/12/08 12:24:03;;;;;;;5.40;4.90;;;3.30;99.90;;;;;;4959331;28;20203;-81
2022/12/08 12:26:35;;;;;;;5.30;4.80;;;3.40;99.90;;;;;;4961509;28;21002;-82
2022/12/08 12:29:18;;;;;;;6.33;5.57;;;3.40;99.90;;;;;;4969292;28;20182;-81
2022/12/08 12:31:52;;;;;;;5.57;4.93;;;3.40;99.90;;;;;;4979062;28;20185;-81
2022/12/08 12:34:47;;;;;;;6.77;5.80;;;3.40;99.90;;;;;;4962706;28;20224;-82
2022/12/08 12:37:19;;;;;;;6.00;5.40;;;3.30;99.90;;;;;;4961151;28;20210;-79
2022/12/08 12:39:57;;;;;;;6.80;5.33;;;3.30;99.90;;;;;;4964072;28;20266;-79
2022/12/08 12:42:49;;;;;;;6.10;5.50;;;3.30;99.90;;;;;;4964533;28;20229;-80
2022/12/08 12:45:15;;;;;;;6.70;6.00;;;3.40;99.90;;;;;;4964044;28;20215;-80
2022/12/08 12:47:48;;;;;;;6.63;5.83;;;3.50;99.90;;;;;;4965484;28;20987;-79
2022/12/08 12:50:35;;;;;;;6.07;5.47;;;3.40;99.90;;;;;;4965707;28;20438;-81
2022/12/08 12:53:16;;;;;;;7.33;6.10;;;4.50;99.90;;;;;;4958980;28;20201;-80
2022/12/08 12:55:45;;;;;;;6.83;6.20;;;4.10;99.90;;;;;;4957932;28;20465;-80
2022/12/08 12:58:28;;;;;;;7.83;6.30;;;3.60;99.90;;;;;;4960943;28;20274;-80
2022/12/08 13:01:12;;;;;;;6.57;5.90;;;3.50;99.90;;;;;;4951047;28;20182;-80
2022/12/08 13:03:47;;;;;;;6.37;5.77;;;3.50;99.90;;;;;;4950561;28;20578;-81
2022/12/08 13:06:13;;;;;;;6.67;5.97;;;3.50;99.90;;;;;;4949581;28;20338;-81
2022/12/08 13:08:52;;;;;;;6.77;6.07;;;2.80;99.90;;;;;;4955688;28;20200;-80